0R4

Concordia Parish Airport

Vidalia, Louisiana, USA
METAR K0R4 170015Z AUTO 00000KT 10SM CLR 32/27 A2997 RMK AO2 LTG DSNT N AND NE T03150268
Observed Flight Rules
Jul-17 @ 00:15 UTC (7 minutes ago) Visual Flight Rules
Visibility Clouds
10 miles
  • Clear skies
Temperatures Readings
Current 32°C / 90°F
Dewpoint 27°C / 81°F
Humidity 75%
Altimeter 29.97" Hg
Pressure 1015 hPa
Elevation 17
METAR K0R4 170015Z AUTO 00000KT 10SM CLR 32/27 A2997 RMK AO2 LTG DSNT N AND NE T03150268
Observed Flight Rules
Jul-17 @ 00:15 UTC
(7 minutes ago)
VFR
Clouds
  • Clear skies
Temperature Dewpoint
32°C / 90°F 27°C / 81°F
Humidity Altimeter Pressure
75% 29.97" Hg 1015 hPa